Time;durP1;ratioP1;P1;durP2;ratioP2;P2;SDS_P1;SDS_P2;PMS_P1;PMS_P2;Temp;Humidity;BMP_temperature;BMP_pressure;BME280_temperature;BME280_humidity;BME280_pressure;Samples;Min_cycle;Max_cycle;Signal;HPM_P1;HPM_P2
2022/08/21 00:00:53;;;;;;;1.30;1.20;;;;;;;14.42;75.55;101653.00;5051983;28;20033;-81
2022/08/21 00:03:18;;;;;;;1.60;1.50;;;;;;;14.41;75.68;101647.81;5052802;28;20021;-81
2022/08/21 00:05:49;;;;;;;1.53;1.43;;;;;;;14.38;75.98;101642.63;5064175;28;20035;-81
2022/08/21 00:08:15;;;;;;;1.60;1.50;;;;;;;14.36;75.92;101645.25;5058643;28;20025;-81
2022/08/21 00:10:43;;;;;;;1.33;1.23;;;;;;;14.33;76.34;101646.19;5052515;28;20111;-81
2022/08/21 00:13:09;;;;;;;1.35;1.25;;;;;;;14.30;75.92;101638.38;5051501;28;20021;-81
2022/08/21 00:15:36;;;;;;;1.60;1.50;;;;;;;14.29;76.11;101638.44;5052601;28;20032;-81
2022/08/21 00:18:03;;;;;;;1.52;1.42;;;;;;;14.26;76.19;101636.75;5052279;28;20032;-81
2022/08/21 00:20:29;;;;;;;3.33;1.67;;;;;;;14.25;76.41;101635.03;5051843;28;20132;-81
2022/08/21 00:22:55;;;;;;;1.70;1.37;;;;;;;14.25;76.45;101636.75;5052200;28;20112;-81
2022/08/21 00:25:20;;;;;;;2.07;1.40;;;;;;;14.21;76.49;101636.84;5051748;28;20025;-80
2022/08/21 00:27:46;;;;;;;1.53;1.43;;;;;;;14.17;76.38;101629.09;5052642;28;20021;-81
2022/08/21 00:30:14;;;;;;;1.60;1.50;;;;;;;14.14;76.38;101632.59;5061370;28;20058;-81
2022/08/21 00:32:40;;;;;;;1.60;1.50;;;;;;;14.12;76.58;101630.91;5071091;28;20025;-81
2022/08/21 00:35:13;;;;;;;1.30;1.30;;;;;;;14.12;76.49;101628.28;5072224;28;20036;-81
2022/08/21 00:37:40;;;;;;;1.30;1.20;;;;;;;14.07;76.64;101625.75;5072327;28;20028;-81
2022/08/21 00:40:08;;;;;;;1.35;1.25;;;;;;;14.04;76.86;101624.06;5051273;28;20075;-81
2022/08/21 00:42:34;;;;;;;1.40;1.30;;;;;;;14.02;76.58;101625.84;5056638;28;20036;-80
2022/08/21 00:44:59;;;;;;;1.40;1.30;;;;;;;13.98;77.01;101618.94;5072078;28;20351;-81
2022/08/21 00:47:24;;;;;;;1.50;1.40;;;;;;;13.97;76.95;101622.44;5073830;28;20023;-81
2022/08/21 00:49:50;;;;;;;1.63;1.53;;;;;;;13.95;76.88;101619.03;5069629;28;20208;-80
2022/08/21 00:52:22;;;;;;;1.83;1.70;;;;;;;13.95;76.85;101626.84;5055661;28;20033;-81
2022/08/21 00:54:49;;;;;;;1.70;1.60;;;;;;;13.97;77.07;101618.97;5055171;28;20036;-81
2022/08/21 00:57:19;;;;;;;1.65;1.55;;;;;;;13.96;77.11;101625.94;5055704;28;20036;-81
2022/08/21 00:59:49;;;;;;;1.90;1.67;;;;;;;13.94;77.12;101619.91;5055464;28;20084;-81
2022/08/21 01:02:16;;;;;;;2.33;1.60;;;;;;;13.93;77.12;101628.63;5054623;28;20021;-81
2022/08/21 01:04:42;;;;;;;1.80;1.65;;;;;;;13.92;77.03;101636.44;5055636;28;20115;-81
2022/08/21 01:07:08;;;;;;;1.80;1.70;;;;;;;13.89;77.18;101625.19;5055526;28;20102;-81
2022/08/21 01:09:33;;;;;;;1.70;1.60;;;;;;;13.88;77.15;101622.59;5055148;28;20024;-81
2022/08/21 01:11:59;;;;;;;2.10;1.90;;;;;;;13.85;77.11;101623.53;5074102;28;20306;-81
2022/08/21 01:14:25;;;;;;;1.75;1.65;;;;;;;13.87;77.20;101628.69;5074877;28;20381;-80
2022/08/21 01:16:52;;;;;;;1.77;1.67;;;;;;;13.85;77.54;101626.13;5074895;28;20099;-81
2022/08/21 01:19:20;;;;;;;2.10;1.90;;;;;;;13.83;77.50;101625.28;5075146;28;20468;-80
2022/08/21 01:21:46;;;;;;;1.88;1.73;;;;;;;13.81;77.47;101627.06;5074352;28;20139;-81
2022/08/21 01:24:12;;;;;;;2.03;1.87;;;;;;;13.78;77.48;101626.25;5075222;28;20044;-81
2022/08/21 01:26:38;;;;;;;1.75;1.65;;;;;;;13.78;77.58;101616.69;5075101;28;20051;-81
2022/08/21 01:29:40;;;;;;;2.03;1.83;;;;;;;13.75;77.91;101614.97;5074101;28;20056;-81
2022/08/21 01:32:10;;;;;;;1.95;1.73;;;;;;;13.73;77.95;101614.16;5075085;28;20079;-81
2022/08/21 01:34:40;;;;;;;1.70;1.50;;;;;;;13.70;78.05;101610.72;5074737;28;20071;-80
2022/08/21 01:37:05;;;;;;;1.88;1.77;;;;;;;13.69;77.97;101615.09;5054099;28;20068;-80
2022/08/21 01:39:31;;;;;;;2.03;1.83;;;;;;;13.68;78.13;101618.56;5055252;28;20048;-81
2022/08/21 01:41:56;;;;;;;1.90;1.80;;;;;;;13.64;77.92;101616.88;5072603;28;20032;-81
2022/08/21 01:44:22;;;;;;;1.90;1.80;;;;;;;13.63;78.13;101616.94;5074352;28;20066;-80
2022/08/21 01:46:48;;;;;;;2.17;1.97;;;;;;;13.62;78.08;101618.69;5073453;28;20571;-81
2022/08/21 01:49:15;;;;;;;2.30;1.90;;;;;;;13.62;78.29;101618.69;5074439;28;20271;-81
2022/08/21 01:51:40;;;;;;;2.05;1.90;;;;;;;13.62;78.19;101617.81;5074216;28;20102;-81
2022/08/21 01:54:05;;;;;;;1.83;1.70;;;;;;;13.58;78.15;101615.25;5074217;28;20067;-80
2022/08/21 01:56:40;;;;;;;1.90;1.80;;;;;;;13.57;78.33;101612.66;5074832;28;20028;-81
2022/08/21 01:59:06;;;;;;;2.10;2.00;;;;;;;13.55;78.32;101609.22;5073830;28;20040;-80
2022/08/21 02:01:31;;;;;;;2.00;1.90;;;;;;;13.53;78.36;101613.59;5074891;28;20073;-81
2022/08/21 02:03:57;;;;;;;2.43;1.97;;;;;;;13.53;78.48;101608.38;5073244;28;20877;-81
2022/08/21 02:06:22;;;;;;;2.63;2.10;;;;;;;13.51;78.43;101607.56;5058234;28;20029;-81
2022/08/21 02:08:50;;;;;;;2.30;1.90;;;;;;;13.49;78.70;101602.34;5062637;28;20027;-81
2022/08/21 02:11:30;;;;;;;2.00;1.90;;;;;;;13.48;78.35;101594.56;5073746;28;20052;-81
2022/08/21 02:13:55;;;;;;;2.20;2.00;;;;;;;13.46;78.73;101594.56;5073929;28;20032;-81
2022/08/21 02:16:20;;;;;;;3.37;2.00;;;;;;;13.44;78.80;101593.75;5074481;28;20047;-81
2022/08/21 02:18:46;;;;;;;3.50;2.23;;;;;;;13.41;78.79;101586.81;5073755;28;20484;-81
2022/08/21 02:21:30;;;;;;;2.67;2.30;;;;;;;13.39;78.77;101586.00;5074022;28;20031;-81
2022/08/21 02:23:55;;;;;;;2.38;2.17;;;;;;;13.38;78.92;101591.19;5033979;28;20121;-81
2022/08/21 02:26:20;;;;;;;2.10;1.93;;;;;;;13.36;78.86;101582.53;5033362;28;20104;-81
2022/08/21 02:28:46;;;;;;;2.57;2.30;;;;;;;13.36;79.09;101591.22;5034281;28;20026;-81
2022/08/21 02:31:24;;;;;;;2.30;2.10;;;;;;;13.35;78.88;101588.63;5033739;28;20022;-81
2022/08/21 02:33:49;;;;;;;2.30;2.10;;;;;;;13.33;79.09;101583.44;5033234;28;20100;-81
2022/08/21 02:36:15;;;;;;;2.67;2.20;;;;;;;13.35;78.92;101578.19;5033721;28;20108;-81
2022/08/21 02:38:41;;;;;;;2.40;2.20;;;;;;;13.34;79.12;101579.09;5048616;28;20024;-81
2022/08/21 02:41:23;;;;;;;2.40;2.20;;;;;;;13.33;79.39;101572.16;5072881;28;20024;-81
2022/08/21 02:43:48;;;;;;;2.55;2.33;;;;;;;13.35;79.14;101575.59;5073575;28;20528;-81
2022/08/21 02:46:17;;;;;;;2.33;2.13;;;;;;;13.35;79.04;101583.41;5073140;28;20107;-81
2022/08/21 02:49:01;;;;;;;2.00;1.90;;;;;;;13.34;79.10;101587.78;5073599;28;20020;-81
2022/08/21 02:51:26;;;;;;;2.20;2.00;;;;;;;13.28;79.21;101578.28;5073673;28;20025;-81
2022/08/21 02:53:51;;;;;;;3.07;2.20;;;;;;;13.27;79.13;101583.53;5072736;28;20516;-81
2022/08/21 02:56:19;;;;;;;1.90;1.80;;;;;;;13.23;79.32;101581.84;5070263;28;20029;-80
2022/08/21 02:58:57;;;;;;;2.20;2.10;;;;;;;13.17;79.50;101574.97;5068836;28;20036;-81
2022/08/21 03:01:22;;;;;;;2.28;2.08;;;;;;;13.16;79.30;101582.84;5072246;28;20028;-81
2022/08/21 03:03:51;;;;;;;2.50;2.00;;;;;;;13.11;79.58;101577.69;5073294;28;20025;-81
2022/08/21 03:06:34;;;;;;;2.15;1.98;;;;;;;13.07;79.42;101579.44;5069244;28;20025;-81
2022/08/21 03:08:59;;;;;;;2.47;2.03;;;;;;;13.04;79.52;101578.63;5051694;28;20033;-80
2022/08/21 03:11:26;;;;;;;2.20;2.00;;;;;;;13.01;79.61;101576.06;5053041;28;20385;-81
2022/08/21 03:14:06;;;;;;;2.35;2.05;;;;;;;12.97;79.83;101576.13;5052781;28;20096;-81
2022/08/21 03:16:32;;;;;;;2.30;2.10;;;;;;;12.95;79.85;101577.00;5052935;28;20029;-81
2022/08/21 03:18:57;;;;;;;1.90;1.80;;;;;;;12.92;79.88;101577.06;5052815;28;20023;-81
2022/08/21 03:21:23;;;;;;;2.37;2.17;;;;;;;12.90;79.73;101579.69;5052302;28;20025;-80
2022/08/21 03:23:48;;;;;;;2.17;1.98;;;;;;;12.89;80.08;101575.34;5052897;28;20049;-81
2022/08/21 03:26:14;;;;;;;1.97;1.87;;;;;;;12.85;79.86;101571.09;5052703;28;20489;-81
2022/08/21 03:28:39;;;;;;;2.20;1.90;;;;;;;12.83;80.32;101571.09;5051909;28;20032;-81
2022/08/21 03:31:05;;;;;;;2.00;1.90;;;;;;;12.83;80.04;101575.44;5056304;28;20036;-81
2022/08/21 03:33:30;;;;;;;2.08;1.80;;;;;;;12.81;80.25;101572.88;5072839;28;20048;-81
2022/08/21 03:36:03;;;;;;;2.20;2.00;;;;;;;12.79;80.05;101573.75;5070893;28;20052;-81
2022/08/21 03:38:30;;;;;;;2.58;2.15;;;;;;;12.78;80.28;101572.91;5052821;28;20116;-81
2022/08/21 03:40:56;;;;;;;2.30;2.10;;;;;;;12.75;80.20;101565.13;5052490;28;20024;-81
2022/08/21 03:43:22;;;;;;;2.08;1.90;;;;;;;12.73;80.27;101569.47;5051860;28;20465;-81
2022/08/21 03:45:48;;;;;;;2.00;1.90;;;;;;;12.71;80.18;101566.06;5058441;28;20078;-81
2022/08/21 03:48:14;;;;;;;2.20;2.00;;;;;;;12.69;80.39;101564.31;5072527;28;20025;-81
2022/08/21 03:50:41;;;;;;;2.17;2.00;;;;;;;12.66;80.39;101568.72;5071938;28;20020;-81
2022/08/21 03:53:09;;;;;;;2.20;2.00;;;;;;;12.63;80.51;101566.16;5072773;28;20036;-81
2022/08/21 03:55:35;;;;;;;2.30;2.10;;;;;;;12.60;80.54;101557.50;5072692;28;20026;-81
2022/08/21 03:58:14;;;;;;;2.40;2.20;;;;;;;12.56;80.67;101558.41;5068075;28;20036;-81
2022/08/21 04:00:40;;;;;;;1.98;1.83;;;;;;;12.55;80.92;101560.19;5052919;28;20087;-81
2022/08/21 04:03:06;;;;;;;2.30;2.07;;;;;;;12.50;82.14;101565.41;5052343;28;20064;-81
2022/08/21 04:05:32;;;;;;;2.77;2.30;;;;;;;12.46;81.16;101553.34;5065402;28;20032;-81
2022/08/21 04:08:00;;;;;;;2.40;2.20;;;;;;;12.47;80.99;101560.25;5072246;28;20271;-81
2022/08/21 04:10:28;;;;;;;2.80;2.30;;;;;;;12.48;80.86;101567.19;5071600;28;20024;-81
2022/08/21 04:12:55;;;;;;;2.08;1.98;;;;;;;12.47;81.27;101564.59;5072446;28;20060;-81
2022/08/21 04:15:21;;;;;;;2.20;2.00;;;;;;;12.45;81.19;101566.34;5072436;28;20028;-81
2022/08/21 04:17:56;;;;;;;1.83;1.73;;;;;;;12.39;81.00;101567.28;5069190;28;20071;-80
2022/08/21 04:20:22;;;;;;;2.25;2.05;;;;;;;12.37;81.00;101571.66;5073185;28;20025;-81
2022/08/21 04:22:48;;;;;;;2.50;2.30;;;;;;;12.38;81.00;101578.59;5076430;28;20077;-81
2022/08/21 04:25:15;;;;;;;3.63;2.22;;;;;;;12.38;81.05;101581.19;5075514;28;20038;-80
2022/08/21 04:27:59;;;;;;;2.50;2.30;;;;;;;12.38;81.29;101575.13;5076409;28;20025;-81
2022/08/21 04:30:24;;;;;;;2.55;2.35;;;;;;;12.35;81.00;101570.81;5061899;28;20029;-81
2022/08/21 04:32:50;;;;;;;3.13;2.50;;;;;;;12.38;81.04;101577.72;5055506;28;20071;-81
2022/08/21 04:35:29;;;;;;;2.50;2.30;;;;;;;12.33;81.51;101575.16;5057179;28;20033;-81
2022/08/21 04:37:56;;;;;;;2.30;2.10;;;;;;;12.32;81.15;101584.72;5055985;28;20033;-81
2022/08/21 04:40:24;;;;;;;2.40;2.20;;;;;;;12.31;81.47;101589.94;5055656;28;20028;-81
2022/08/21 04:43:10;;;;;;;2.42;2.17;;;;;;;12.30;81.43;101586.47;5055781;28;20068;-81
2022/08/21 04:45:38;;;;;;;;;;;;;;;12.30;81.96;101586.47;5055856;28;20040;-80
2022/08/21 04:48:07;;;;;;;2.50;2.30;;;;;;;12.27;81.59;101590.88;5055777;28;19939;-81
2022/08/21 04:51:00;;;;;;;2.60;2.10;;;;;;;12.29;81.97;101591.69;5056187;28;20096;-81
2022/08/21 04:53:36;;;;;;;2.00;1.80;;;;;;;12.30;81.98;101596.00;5055115;28;20025;-80
2022/08/21 04:56:04;;;;;;;;;;;;;;;12.31;81.91;101593.41;5055810;28;20485;-81
2022/08/21 04:58:33;;;;;;;2.40;2.20;;;;;;;12.31;81.73;101582.13;5054372;28;19924;-80
2022/08/21 05:01:01;;;;;;;2.50;2.30;;;;;;;12.35;81.59;101578.63;5066656;28;20086;-81
2022/08/21 05:03:29;;;;;;;2.30;2.10;;;;;;;12.36;81.94;101590.75;5075465;28;20460;-81
2022/08/21 05:08:43;;;;;;;2.00;1.90;;;;;;;12.35;82.06;101596.84;5066420;22;20049;-81
2022/08/21 05:11:09;;;;;;;3.17;2.40;;;;;;;12.36;82.93;101599.41;5055416;28;20044;-81
2022/08/21 05:13:35;;;;;;;3.37;2.40;;;;;;;12.35;83.27;101600.28;5054837;28;20098;-81
2022/08/21 05:16:00;;;;;;;2.30;2.10;;;;;;;12.35;83.91;101597.69;5054942;28;20029;-80
2022/08/21 05:18:25;;;;;;;2.30;2.10;;;;;;;12.38;83.04;101606.34;5055728;28;20025;-81
2022/08/21 05:20:50;;;;;;;3.10;2.70;;;;;;;12.39;84.68;101606.31;5054508;28;20033;-81
2022/08/21 05:23:16;;;;;;;3.30;2.80;;;;;;;12.41;84.37;101609.78;5055246;28;20037;-81
2022/08/21 05:25:42;;;;;;;3.57;3.10;;;;;;;12.42;86.25;101601.09;5056680;28;20107;-81
2022/08/21 05:28:08;;;;;;;3.00;2.70;;;;;;;12.44;85.32;101601.94;5054811;28;20436;-81
2022/08/21 05:30:34;;;;;;;2.50;2.27;;;;;;;12.49;84.85;101607.97;5055309;28;20024;-81
2022/08/21 05:33:02;;;;;;;2.85;2.60;;;;;;;12.52;86.01;101607.91;5054175;28;20021;-81
2022/08/21 05:35:45;;;;;;;3.25;2.80;;;;;;;12.56;84.66;101613.09;5055308;28;20037;-80
2022/08/21 05:38:11;;;;;;;2.50;2.30;;;;;;;12.62;84.74;101615.63;5054790;28;20021;-81
2022/08/21 05:40:36;;;;;;;3.23;2.50;;;;;;;12.67;85.96;101616.44;5059838;28;20028;-81
2022/08/21 05:43:01;;;;;;;3.80;2.60;;;;;;;12.70;86.74;101611.22;5073687;28;20040;-80
2022/08/21 05:45:40;;;;;;;2.40;2.20;;;;;;;12.74;85.64;101610.28;5074843;28;20025;-81
2022/08/21 05:48:12;;;;;;;2.30;2.10;;;;;;;12.81;84.90;101617.16;5074625;28;20028;-81
2022/08/21 05:50:54;;;;;;;2.40;2.00;;;;;;;12.86;85.59;101611.88;5073995;28;20373;-81
2022/08/21 05:53:21;;;;;;;2.00;1.90;;;;;;;12.95;85.68;101610.88;5074935;28;20550;-80
2022/08/21 05:55:47;;;;;;;1.90;1.80;;;;;;;13.00;85.51;101614.31;5074119;28;20032;-80
2022/08/21 05:58:19;;;;;;;1.70;1.60;;;;;;;13.06;84.96;101613.34;5069418;28;20027;-80
2022/08/21 06:00:47;;;;;;;5.10;2.45;;;;;;;13.12;87.44;101610.66;5054581;28;20271;-80
2022/08/21 06:03:19;;;;;;;2.88;2.50;;;;;;;13.19;86.47;101619.25;5053559;28;20078;-81
2022/08/21 06:05:45;;;;;;;2.00;1.90;;;;;;;13.24;85.72;101612.25;5050301;28;20043;-81
2022/08/21 06:08:10;;;;;;;2.50;2.20;;;;;;;13.32;87.54;101615.59;5055214;28;20069;-81
2022/08/21 06:10:42;;;;;;;2.37;2.07;;;;;;;13.36;86.39;101608.59;5053849;28;20063;-81
2022/08/21 06:13:08;;;;;;;1.90;1.80;;;;;;;13.42;86.37;101617.22;5054166;28;20036;-81
2022/08/21 06:15:34;;;;;;;2.83;1.90;;;;;;;13.51;86.03;101618.00;5054212;28;20107;-81
2022/08/21 06:17:59;;;;;;;3.20;2.00;;;;;;;13.56;86.08;101614.44;5053131;28;20036;-81
2022/08/21 06:20:25;;;;;;;2.63;2.40;;;;;;;13.64;86.89;101619.50;5054286;28;20029;-80
2022/08/21 06:22:51;;;;;;;4.57;2.67;;;;;;;13.70;87.36;101622.03;5053541;28;20033;-81
2022/08/21 06:25:16;;;;;;;3.43;2.20;;;;;;;13.75;86.53;101625.41;5053473;28;20027;-81
2022/08/21 06:27:42;;;;;;;2.57;2.10;;;;;;;13.82;86.31;101620.09;5054950;28;20020;-81
2022/08/21 06:30:08;;;;;;;4.20;2.70;;;;;;;13.88;86.69;101620.88;5053972;28;20465;-81
2022/08/21 06:32:34;;;;;;;4.10;2.90;;;;;;;13.98;87.77;101620.72;5053119;28;20032;-81
2022/08/21 06:34:59;;;;;;;4.53;3.15;;;;;;;14.04;87.87;101620.59;5054001;28;20021;-82
2022/08/21 06:37:25;;;;;;;3.83;2.80;;;;;;;14.12;87.00;101626.56;5053952;28;20538;-81
2022/08/21 06:39:50;;;;;;;2.90;2.60;;;;;;;14.19;87.29;101625.56;5052703;28;20063;-79
2022/08/21 06:42:16;;;;;;;3.23;2.47;;;;;;;14.26;86.70;101626.31;5053745;28;20032;-82
2022/08/21 06:44:42;;;;;;;2.42;2.10;;;;;;;14.35;86.33;101630.50;5053967;28;20021;-82
2022/08/21 06:47:08;;;;;;;4.57;2.90;;;;;;;14.42;86.92;101626.88;5051928;28;20029;-82
2022/08/21 06:49:34;;;;;;;3.70;2.57;;;;;;;14.49;86.50;101630.22;5052854;28;20025;-82
2022/08/21 06:52:12;;;;;;;5.15;2.72;;;;;;;14.56;86.24;101624.00;5056066;28;20421;-82
2022/08/21 06:54:39;;;;;;;4.47;2.83;;;;;;;14.66;86.11;101619.47;5071959;28;20024;-82
2022/08/21 06:57:05;;;;;;;3.15;2.20;;;;;;;14.76;85.97;101628.88;5066006;28;20035;-82
2022/08/21 06:59:31;;;;;;;2.40;1.90;;;;;;;14.86;85.93;101621.69;5045842;28;20025;-81
2022/08/21 07:02:11;;;;;;;2.05;1.90;;;;;;;14.98;86.05;101617.97;5049812;28;20032;-82
2022/08/21 07:04:36;;;;;;;2.95;2.30;;;;;;;15.12;86.72;101623.75;5048644;28;20055;-82
2022/08/21 07:07:02;;;;;;;2.60;2.17;;;;;;;15.98;87.60;101624.41;5040274;28;20102;-82
2022/08/21 07:09:27;;;;;;;1.80;1.70;;;;;;;18.43;86.60;101614.38;5033223;28;20049;-82
2022/08/21 07:12:08;;;;;;;1.50;1.40;;;;;;;21.43;81.34;101617.63;5033092;28;20112;-82
2022/08/21 07:14:33;;;;;;;1.95;1.70;;;;;;;23.67;74.09;101614.66;5033827;28;20033;-82
2022/08/21 07:16:58;;;;;;;3.13;1.73;;;;;;;25.23;69.28;101614.00;5046244;28;20120;-82
2022/08/21 07:19:24;;;;;;;2.00;1.70;;;;;;;25.99;61.64;101619.63;5054779;28;20032;-82
2022/08/21 07:22:03;;;;;;;2.07;1.87;;;;;;;26.00;60.14;101611.56;5052112;28;20539;-82
2022/08/21 07:24:29;;;;;;;1.67;1.35;;;;;;;25.31;62.01;101616.16;5053000;28;20033;-83
2022/08/21 07:26:54;;;;;;;1.70;1.60;;;;;;;24.56;62.52;101617.31;5052892;28;20021;-80
2022/08/21 07:29:19;;;;;;;1.93;1.80;;;;;;;23.79;62.52;101607.75;5052388;28;20354;-84
2022/08/21 07:31:45;;;;;;;2.40;1.87;;;;;;;22.92;63.89;101615.31;5072676;28;20043;-81
2022/08/21 07:34:10;;;;;;;1.80;1.53;;;;;;;22.16;64.21;101619.31;5072603;28;20381;-82
2022/08/21 07:36:36;;;;;;;1.87;1.67;;;;;;;21.34;64.96;101609.31;5069825;28;20411;-81
2022/08/21 07:39:01;;;;;;;1.93;1.77;;;;;;;20.67;69.17;101620.31;5052710;28;20051;-81
2022/08/21 07:41:28;;;;;;;2.35;2.00;;;;;;;20.15;69.40;101619.06;5051755;28;20055;-82
2022/08/21 07:43:57;;;;;;;3.35;1.80;;;;;;;19.80;70.75;101617.91;5052609;28;20033;-82
2022/08/21 07:46:23;;;;;;;2.75;1.75;;;;;;;19.59;70.96;101618.72;5052796;28;20030;-82
2022/08/21 07:48:49;;;;;;;2.60;2.10;;;;;;;19.40;71.21;101615.13;5052815;28;20017;-82
2022/08/21 07:51:17;;;;;;;5.13;2.40;;;;;;;19.32;71.96;101611.94;5052781;28;20436;-82
2022/08/21 07:53:48;;;;;;;4.43;2.00;;;;;;;19.28;71.97;101616.50;5052695;28;20113;-82
2022/08/21 07:56:13;;;;;;;2.72;1.90;;;;;;;19.16;72.30;101611.72;5051353;28;20059;-81
2022/08/21 07:58:38;;;;;;;3.17;1.80;;;;;;;19.10;72.48;101613.66;5052713;28;20017;-83
2022/08/21 08:01:05;;;;;;;3.43;2.00;;;;;;;19.04;72.71;101611.28;5052333;28;20430;-81
2022/08/21 08:03:31;;;;;;;2.20;1.70;;;;;;;19.03;72.75;101611.34;5051966;28;20033;-82
2022/08/21 08:05:57;;;;;;;3.13;2.10;;;;;;;19.08;73.12;101614.63;5052528;28;20462;-81
2022/08/21 08:08:23;;;;;;;3.33;2.00;;;;;;;19.14;73.62;101614.38;5052424;28;20048;-82
2022/08/21 08:10:49;;;;;;;4.28;2.50;;;;;;;19.17;72.36;101603.75;5051825;28;20021;-81
2022/08/21 08:13:14;;;;;;;4.33;2.20;;;;;;;19.24;73.40;101607.00;5052368;28;20096;-81
2022/08/21 08:15:40;;;;;;;5.03;2.27;;;;;;;19.37;73.48;101609.97;5063779;28;20318;-82
2022/08/21 08:18:05;;;;;;;3.53;1.60;;;;;;;19.49;73.45;101611.28;5071518;28;20024;-81
2022/08/21 08:20:30;;;;;;;4.47;1.83;;;;;;;19.61;73.65;101608.16;5072744;28;20024;-82
2022/08/21 08:22:56;;;;;;;1.90;1.70;;;;;;;19.72;73.23;101612.94;5072179;28;20025;-82
2022/08/21 08:25:23;;;;;;;2.63;1.60;;;;;;;19.82;72.29;101610.78;5071758;28;20020;-82
2022/08/21 08:27:49;;;;;;;1.77;1.50;;;;;;;19.86;72.25;101605.38;5072253;28;20488;-83
2022/08/21 08:30:17;;;;;;;5.32;2.08;;;;;;;19.97;72.79;101609.31;5072077;28;20032;-81
2022/08/21 08:32:44;;;;;;;3.47;1.88;;;;;;;20.07;71.49;101605.38;5071488;28;20469;-83
2022/08/21 08:35:11;;;;;;;2.80;1.90;;;;;;;20.18;71.09;101604.91;5071985;28;20029;-82
2022/08/21 08:37:40;;;;;;;3.67;2.08;;;;;;;20.27;70.97;101609.78;5071571;28;20033;-82
2022/08/21 08:40:13;;;;;;;3.47;2.05;;;;;;;20.35;71.12;101604.16;5070249;28;20460;-83
2022/08/21 08:42:39;;;;;;;4.88;2.10;;;;;;;20.44;70.99;101609.03;5071213;28;20081;-82
2022/08/21 08:45:16;;;;;;;3.77;1.90;;;;;;;20.54;70.55;101601.56;5051710;28;20095;-85
2022/08/21 08:47:55;;;;;;;3.65;1.80;;;;;;;20.65;70.79;101599.28;5078145;22;20059;-84
2022/08/21 08:50:49;;;;;;;3.63;2.15;;;;;;;20.78;68.03;101593.47;5072787;28;20051;-83
2022/08/21 08:53:27;;;;;;;3.78;2.00;;;;;;;20.86;69.67;101588.69;5071376;28;20039;-84
2022/08/21 08:55:53;;;;;;;5.03;2.00;;;;;;;20.98;69.13;101595.16;5071960;28;20024;-84
2022/08/21 08:58:33;;;;;;;3.17;1.93;;;;;;;21.08;69.21;101588.53;5072223;28;20060;-83
2022/08/21 09:00:59;;;;;;;3.97;1.88;;;;;;;21.20;67.71;101581.81;5071326;28;20025;-84
2022/08/21 09:03:27;;;;;;;3.60;2.00;;;;;;;21.32;69.35;101580.34;5072044;28;20385;-81
2022/08/21 09:06:07;;;;;;;2.78;1.80;;;;;;;21.46;68.48;101574.38;5071068;28;20404;-84
2022/08/21 09:08:49;;;;;;;3.92;1.70;;;;;;;21.49;68.79;101571.59;5065590;28;20040;-84
2022/08/21 09:11:28;;;;;;;2.83;1.88;;;;;;;21.59;68.84;101578.16;5075715;28;20539;-84
2022/08/21 09:14:19;;;;;;;3.17;1.70;;;;;;;21.68;65.86;101570.69;5072904;28;20024;-83
2022/08/21 09:17:22;;;;;;;4.97;2.10;;;;;;;21.69;66.53;101573.28;5075641;28;20028;-84
2022/08/21 09:20:10;;;;;;;4.28;1.92;;;;;;;21.70;63.87;101576.75;5072889;28;20032;-86
2022/08/21 09:22:50;;;;;;;3.60;2.03;;;;;;;21.74;65.59;101578.31;5075173;28;20060;-85
2022/08/21 09:25:26;;;;;;;3.53;1.90;;;;;;;21.77;64.71;101579.94;5075748;28;20064;-87
2022/08/21 09:27:51;;;;;;;3.95;1.80;;;;;;;21.78;65.54;101576.38;5074171;28;20103;-84
2022/08/21 09:30:19;;;;;;;3.00;1.70;;;;;;;21.84;64.14;101573.44;5075004;28;20038;-84
2022/08/21 09:32:44;;;;;;;2.95;1.70;;;;;;;21.97;65.65;101577.13;5075256;28;20672;-87
2022/08/21 09:35:15;;;;;;;1.60;1.50;;;;;;;22.06;64.82;101581.09;5074336;28;20108;-85
2022/08/21 09:37:52;;;;;;;2.67;1.60;;;;;;;22.10;64.87;101579.13;5075424;28;20031;-80
2022/08/21 09:40:32;;;;;;;3.75;1.70;;;;;;;22.13;62.80;101579.81;5075000;28;20115;-82
2022/08/21 09:43:16;;;;;;;2.17;1.67;;;;;;;22.25;61.95;101575.69;5072326;28;20388;-83
2022/08/21 09:45:43;;;;;;;2.15;1.33;;;;;;;22.44;64.60;101582.66;5067788;28;20033;-83
2022/08/21 09:48:29;;;;;;;2.53;1.35;;;;;;;22.67;63.88;101586.72;5062241;28;20918;-84
2022/08/21 09:51:08;;;;;;;4.93;1.98;;;;;;;22.72;60.78;101575.88;5065449;28;20027;-83
2022/08/21 09:53:35;;;;;;;3.28;1.70;;;;;;;22.78;62.83;101571.09;5063527;28;20037;-83
2022/08/21 09:58:49;;;;;;;2.72;1.70;;;;;;;22.83;61.25;101571.69;5054733;28;20178;-84
2022/08/21 10:01:22;;;;;;;2.10;1.55;;;;;;;22.99;61.85;101570.84;5054672;28;20033;-83
2022/08/21 10:03:49;;;;;;;2.42;1.70;;;;;;;23.14;59.35;101569.94;5053969;28;20021;-83
2022/08/21 10:06:24;;;;;;;1.65;1.40;;;;;;;23.21;59.27;101567.00;5058227;28;20036;-83
2022/08/21 10:08:49;;;;;;;1.58;1.38;;;;;;;23.27;59.72;101572.78;5072713;28;20024;-83
2022/08/21 10:11:26;;;;;;;1.60;1.40;;;;;;;23.27;61.05;101574.56;5068926;28;20031;-84
2022/08/21 10:14:00;;;;;;;1.30;1.10;;;;;;;23.29;61.07;101562.97;5054431;28;20040;-84
2022/08/21 10:16:47;;;;;;;1.30;1.20;;;;;;;23.36;58.33;101565.25;5053926;28;20033;-85
2022/08/21 10:19:41;;;;;;;2.70;1.23;;;;;;;23.18;60.32;101575.94;5053723;28;20103;-85
2022/08/21 10:22:18;;;;;;;3.67;1.80;;;;;;;23.23;58.03;101573.06;5054071;28;20469;-84
2022/08/21 10:25:15;;;;;;;1.70;1.60;;;;;;;23.45;59.56;101567.34;5053546;28;20354;-84
2022/08/21 10:28:04;;;;;;;4.43;2.10;;;;;;;23.75;59.60;101563.84;5054583;28;20052;-86
2022/08/21 10:30:51;;;;;;;2.42;1.80;;;;;;;23.70;59.42;101560.63;5053380;28;20031;-85
2022/08/21 10:33:35;;;;;;;3.38;1.83;;;;;;;23.59;56.70;101570.06;5054124;28;20476;-84
2022/08/21 10:36:01;;;;;;;2.75;1.52;;;;;;;23.48;58.91;101567.19;5057138;28;20034;-83
2022/08/21 10:38:54;;;;;;;1.70;1.40;;;;;;;23.49;58.97;101568.91;5073329;28;20116;-84
2022/08/21 10:41:44;;;;;;;1.38;1.30;;;;;;;23.64;57.61;101561.84;5053856;28;20067;-84
2022/08/21 10:44:31;;;;;;;1.70;1.58;;;;;;;23.84;57.79;101560.66;5052918;28;20037;-84
2022/08/21 10:47:15;;;;;;;1.88;1.70;;;;;;;23.97;55.96;101566.09;5053330;28;20049;-84
2022/08/21 10:50:02;;;;;;;2.55;1.90;;;;;;;24.06;56.28;101562.03;5054053;28;20380;-84
2022/08/21 10:52:49;;;;;;;2.88;2.10;;;;;;;24.21;55.55;101568.19;5053062;28;20090;-84
2022/08/21 10:55:21;;;;;;;2.50;1.80;;;;;;;24.37;56.48;101565.44;5053535;28;20505;-84
2022/08/21 10:58:11;;;;;;;1.73;1.63;;;;;;;24.50;57.01;101560.19;5053705;28;20032;-84
2022/08/21 11:00:51;;;;;;;1.60;1.50;;;;;;;24.49;56.32;101561.13;5044449;28;20040;-84
2022/08/21 11:03:39;;;;;;;1.40;1.30;;;;;;;24.43;57.01;101557.06;5053751;28;20108;-83
2022/08/21 11:06:10;;;;;;;1.85;1.55;;;;;;;24.36;57.58;101556.63;5052534;28;20021;-85
2022/08/21 11:08:43;;;;;;;1.52;1.40;;;;;;;24.25;54.94;101550.28;5053280;28;20075;-85
2022/08/21 11:11:13;;;;;;;1.58;1.30;;;;;;;24.14;54.29;101550.97;5053895;28;20331;-86
2022/08/21 11:13:44;;;;;;;1.83;1.58;;;;;;;24.09;57.61;101561.84;5052639;28;20381;-83
2022/08/21 11:16:35;;;;;;;1.38;1.27;;;;;;;24.14;57.37;101557.09;5068293;28;20033;-83
2022/08/21 11:19:16;;;;;;;1.98;1.48;;;;;;;24.24;52.21;101560.03;5073467;28;20020;-83
2022/08/21 11:21:48;;;;;;;3.08;1.98;;;;;;;24.30;52.66;101554.34;5073032;28;20101;-83
2022/08/21 11:24:39;;;;;;;2.00;1.80;;;;;;;24.49;54.58;101556.69;5073309;28;20081;-84
2022/08/21 11:27:32;;;;;;;3.72;2.00;;;;;;;24.77;52.90;101549.66;5072106;28;20024;-84
2022/08/21 11:30:00;;;;;;;2.65;1.85;;;;;;;24.90;51.62;101555.03;5061741;28;20056;-84
2022/08/21 11:32:40;;;;;;;2.33;1.80;;;;;;;25.09;52.74;101549.38;5073053;28;20024;-84
2022/08/21 11:35:32;;;;;;;1.70;1.60;;;;;;;25.22;50.56;101540.59;5072002;28;20115;-83
2022/08/21 11:37:57;;;;;;;3.92;2.10;;;;;;;25.17;51.39;101538.22;5072911;28;20116;-83
2022/08/21 11:40:53;;;;;;;1.73;1.63;;;;;;;25.29;51.95;101536.56;5072519;28;20060;-84
2022/08/21 11:43:34;;;;;;;3.30;2.05;;;;;;;25.26;50.93;101536.75;5073101;28;20070;-83
2022/08/21 11:46:12;;;;;;;2.88;1.60;;;;;;;25.25;52.25;101540.38;5072344;28;20044;-84
2022/08/21 11:48:51;;;;;;;1.38;1.27;;;;;;;25.33;49.42;101538.06;5072032;28;20024;-84